Time,TemperatureF,DewpointF,PressureIn,WindDirection,WindDirectionDegrees,WindSpeedMPH,WindSpeedGustMPH,Humidity,HourlyPrecipIn,Conditions,Clouds,dailyrainin,SoftwareType,DateUTC
2013-08-04 00:01:00,80.1,77.0,30.06,NNE,22,3.4,3.4,89,0.00,,,0.00,Graphweather,2013-08-04 04:01:00,
2013-08-04 00:03:00,80.1,77.0,30.06,East,90,3.4,6.5,90,0.00,,,0.00,Graphweather,2013-08-04 04:03:00,
2013-08-04 00:04:00,80.1,77.0,30.06,WSW,247,3.4,6.5,89,0.00,,,0.00,Graphweather,2013-08-04 04:04:00,
2013-08-04 00:05:00,80.1,77.0,30.06,NE,45,3.8,5.6,89,0.00,,,0.00,Graphweather,2013-08-04 04:05:00,
2013-08-04 00:07:00,80.1,77.0,30.06,North,0,4.0,5.4,89,0.00,,,0.00,Graphweather,2013-08-04 04:07:00,
2013-08-04 00:12:00,80.1,77.0,30.06,ENE,67,3.4,0.0,90,0.00,,,0.00,Graphweather,2013-08-04 04:12:00,
2013-08-04 00:17:00,80.1,77.0,30.06,SE,135,2.9,3.1,89,0.00,,,0.00,Graphweather,2013-08-04 04:17:00,
2013-08-04 00:23:00,80.1,77.0,30.06,East,90,2.9,3.8,90,0.00,,,0.00,Graphweather,2013-08-04 04:23:00,
2013-08-04 00:28:00,80.1,77.0,30.06,SSW,202,2.5,2.7,90,0.00,,,0.00,Graphweather,2013-08-04 04:28:00,
2013-08-04 00:33:00,80.1,77.0,30.06,East,90,3.6,4.0,90,0.00,,,0.00,Graphweather,2013-08-04 04:33:00,
2013-08-04 00:38:00,80.1,77.0,30.06,ENE,67,3.8,3.8,90,0.00,,,0.00,Graphweather,2013-08-04 04:38:00,
2013-08-04 00:43:00,79.9,77.0,30.06,ENE,67,2.0,3.4,91,0.00,,,0.00,Graphweather,2013-08-04 04:43:00,
2013-08-04 00:49:00,79.9,77.0,30.03,East,90,3.6,3.8,91,0.00,,,0.00,Graphweather,2013-08-04 04:49:00,
2013-08-04 00:54:00,79.9,77.0,30.03,SSW,202,3.6,4.0,91,0.00,,,0.00,Graphweather,2013-08-04 04:54:00,
2013-08-04 00:59:00,79.9,77.0,30.03,NNW,337,3.1,3.6,91,0.00,,,0.00,Graphweather,2013-08-04 04:59:00,
2013-08-04 01:05:00,79.9,77.0,30.06,SE,135,3.8,3.8,91,0.00,,,0.00,Graphweather,2013-08-04 05:05:00,
2013-08-04 01:10:00,79.9,77.0,30.06,NE,45,2.9,4.0,92,0.00,,,0.00,Graphweather,2013-08-04 05:10:00,
2013-08-04 01:15:00,79.9,78.8,30.06,NNE,22,3.4,3.8,93,0.00,,,0.00,Graphweather,2013-08-04 05:15:00,
2013-08-04 01:20:00,79.9,78.8,30.06,ENE,67,3.8,6.3,93,0.00,,,0.00,Graphweather,2013-08-04 05:20:00,
2013-08-04 01:25:00,79.9,78.8,30.06,NE,45,2.9,3.8,93,0.00,,,0.00,Graphweather,2013-08-04 05:25:00,
2013-08-04 01:31:00,79.9,78.8,30.06,SSW,202,2.2,3.1,93,0.00,,,0.00,Graphweather,2013-08-04 05:31:00,
2013-08-04 01:36:00,79.9,78.8,30.03,ENE,67,3.4,4.9,93,0.00,,,0.00,Graphweather,2013-08-04 05:36:00,
2013-08-04 01:41:00,79.9,77.0,30.03,SSW,202,2.5,3.6,92,0.00,,,0.00,Graphweather,2013-08-04 05:41:00,
2013-08-04 14:48:00,92.1,77.0,30.00,ENE,67,2.9,5.8,62,0.00,,,0.00,Graphweather,2013-08-04 18:48:00,
2013-08-04 14:54:00,91.4,77.0,30.00,ENE,67,2.2,3.1,61,0.00,,,0.00,Graphweather,2013-08-04 18:54:00,
2013-08-04 14:59:00,92.3,77.0,30.00,NE,45,2.0,3.4,61,0.00,,,0.00,Graphweather,2013-08-04 18:59:00,
2013-08-04 15:04:00,91.2,78.8,30.00,NNE,22,3.6,4.5,64,0.00,,,0.00,Graphweather,2013-08-04 19:04:00,
2013-08-04 15:10:00,92.3,78.8,30.00,East,90,2.7,5.6,63,0.00,,,0.00,Graphweather,2013-08-04 19:10:00,
2013-08-04 15:15:00,91.2,78.8,30.00,ESE,112,3.6,3.6,64,0.00,,,0.00,Graphweather,2013-08-04 19:15:00,
2013-08-04 15:20:00,91.0,78.8,30.00,North,0,2.5,2.5,66,0.00,,,0.00,Graphweather,2013-08-04 19:20:00,
2013-08-04 15:26:00,91.6,78.8,30.00,North,0,2.5,3.4,64,0.00,,,0.00,Graphweather,2013-08-04 19:26:00,
2013-08-04 15:31:00,90.7,78.8,30.00,NE,45,3.1,3.1,66,0.00,,,0.00,Graphweather,2013-08-04 19:31:00,
2013-08-04 15:36:00,90.1,77.0,30.00,East,90,3.8,3.8,66,0.00,,,0.00,Graphweather,2013-08-04 19:36:00,
2013-08-04 15:41:00,90.0,77.0,30.00,NNE,22,2.9,5.4,66,0.00,,,0.00,Graphweather,2013-08-04 19:41:00,
2013-08-04 15:47:00,89.6,77.0,30.00,ENE,67,3.1,3.8,67,0.00,,,0.00,Graphweather,2013-08-04 19:47:00,
2013-08-04 15:52:00,90.0,78.8,30.00,East,90,3.1,3.1,67,0.00,,,0.00,Graphweather,2013-08-04 19:52:00,
2013-08-04 15:58:00,88.9,78.8,30.00,North,0,2.7,5.4,70,0.00,,,0.00,Graphweather,2013-08-04 19:58:00,
2013-08-04 16:14:00,88.7,78.8,29.97,NNE,22,2.5,3.6,70,0.00,,,0.00,Graphweather,2013-08-04 20:14:00,
2013-08-04 16:20:00,88.3,78.8,29.97,SE,135,2.0,3.1,71,0.00,,,0.00,Graphweather,2013-08-04 20:20:00,
2013-08-04 16:25:00,88.5,78.8,29.97,NNW,337,2.2,2.2,71,0.00,,,0.00,Graphweather,2013-08-04 20:25:00,
2013-08-04 16:30:00,87.1,77.0,29.97,NNE,22,2.7,0.0,73,0.00,,,0.00,Graphweather,2013-08-04 20:30:00,
2013-08-04 16:36:00,86.5,78.8,29.97,ESE,112,3.4,3.4,75,0.00,,,0.00,Graphweather,2013-08-04 20:36:00,
2013-08-04 16:42:00,86.0,77.0,29.97,ENE,67,2.9,2.9,75,0.00,,,0.00,Graphweather,2013-08-04 20:42:00,
2013-08-04 16:47:00,86.0,77.0,29.97,SE,135,2.9,6.5,76,0.00,,,0.00,Graphweather,2013-08-04 20:47:00,
2013-08-04 16:52:00,85.6,77.0,29.97,NNE,22,2.5,2.9,77,0.00,,,0.00,Graphweather,2013-08-04 20:52:00,
2013-08-04 16:58:00,85.6,77.0,29.97,ENE,67,2.0,5.6,78,0.00,,,0.00,Graphweather,2013-08-04 20:58:00,
2013-08-04 17:03:00,85.1,77.0,29.97,East,90,2.2,2.2,78,0.00,,,0.00,Graphweather,2013-08-04 21:03:00,
2013-08-04 17:08:00,84.9,77.0,30.00,ENE,67,1.6,2.7,78,0.00,,,0.00,Graphweather,2013-08-04 21:08:00,
2013-08-04 17:13:00,84.7,77.0,30.00,ENE,67,2.2,2.2,78,0.00,,,0.00,Graphweather,2013-08-04 21:13:00,
2013-08-04 17:25:00,84.0,78.8,30.00,ESE,112,2.9,3.4,81,0.00,,,0.00,Graphweather,2013-08-04 21:25:00,
2013-08-04 17:30:00,83.8,77.0,30.00,ENE,67,2.2,4.7,81,0.00,,,0.00,Graphweather,2013-08-04 21:30:00,
2013-08-04 17:36:00,83.5,78.8,30.00,NNE,22,2.5,3.8,82,0.00,,,0.00,Graphweather,2013-08-04 21:36:00,
2013-08-04 17:41:00,83.1,77.0,30.00,SSW,202,2.7,3.4,82,0.00,,,0.00,Graphweather,2013-08-04 21:41:00,
2013-08-04 17:46:00,83.1,77.0,30.00,NE,45,2.5,5.6,83,0.00,,,0.00,Graphweather,2013-08-04 21:46:00,
2013-08-04 17:49:00,83.1,77.0,30.00,NNE,22,2.5,2.5,83,0.00,,,0.00,Graphweather,2013-08-04 21:49:00,
2013-08-04 17:54:00,82.9,77.0,30.00,ESE,112,2.5,2.9,83,0.00,,,0.00,Graphweather,2013-08-04 21:54:00,
2013-08-04 18:00:00,82.8,78.8,30.00,North,0,3.1,6.0,84,0.00,,,0.00,Graphweather,2013-08-04 22:00:00,
2013-08-04 18:05:00,82.4,77.0,30.00,East,90,1.3,1.6,84,0.00,,,0.00,Graphweather,2013-08-04 22:05:00,
2013-08-04 18:10:00,82.2,78.8,30.00,ENE,67,2.9,2.9,85,0.00,,,0.00,Graphweather,2013-08-04 22:10:00,
2013-08-04 18:15:00,82.0,77.0,30.00,South,180,2.7,3.8,85,0.00,,,0.00,Graphweather,2013-08-04 22:15:00,
2013-08-04 18:21:00,81.7,77.0,30.00,East,90,2.9,3.8,86,0.00,,,0.00,Graphweather,2013-08-04 22:21:00,
2013-08-04 18:26:00,81.5,77.0,30.00,NE,45,2.7,2.7,86,0.00,,,0.00,Graphweather,2013-08-04 22:26:00,
2013-08-04 18:31:00,81.3,77.0,30.00,WSW,247,2.7,3.4,85,0.00,,,0.00,Graphweather,2013-08-04 22:31:00,
2013-08-04 18:37:00,81.1,77.0,30.00,North,0,2.2,3.6,87,0.00,,,0.00,Graphweather,2013-08-04 22:37:00,
2013-08-04 18:42:00,81.1,77.0,30.00,ENE,67,2.5,2.5,86,0.00,,,0.00,Graphweather,2013-08-04 22:42:00,
2013-08-04 18:47:00,81.0,77.0,30.00,NE,45,1.1,1.6,87,0.00,,,0.00,Graphweather,2013-08-04 22:47:00,
2013-08-04 18:52:00,81.0,77.0,30.00,NE,45,3.8,3.8,88,0.00,,,0.00,Graphweather,2013-08-04 22:52:00,
2013-08-04 18:57:00,80.8,77.0,30.00,NNE,22,3.8,6.3,87,0.00,,,0.00,Graphweather,2013-08-04 22:57:00,
2013-08-04 19:03:00,80.8,77.0,30.00,ENE,67,3.1,3.4,88,0.00,,,0.00,Graphweather,2013-08-04 23:03:00,
2013-08-04 19:08:00,80.8,77.0,30.03,East,90,2.7,3.4,89,0.00,,,0.00,Graphweather,2013-08-04 23:08:00,
2013-08-04 19:13:00,80.6,77.0,30.03,SSE,157,2.9,2.9,88,0.00,,,0.00,Graphweather,2013-08-04 23:13:00,
2013-08-04 19:18:00,80.6,77.0,30.03,SSE,157,2.0,3.4,89,0.00,,,0.00,Graphweather,2013-08-04 23:18:00,
2013-08-04 19:23:00,80.6,77.0,30.03,East,90,2.7,2.7,89,0.00,,,0.00,Graphweather,2013-08-04 23:23:00,
2013-08-04 19:29:00,80.6,77.0,30.03,ENE,67,2.9,2.9,89,0.00,,,0.00,Graphweather,2013-08-04 23:29:00,
2013-08-04 19:39:00,80.4,77.0,29.97,North,0,2.5,3.6,88,0.00,,,0.00,Graphweather,2013-08-04 23:39:00,
2013-08-04 19:45:00,80.4,77.0,29.97,East,90,2.2,3.1,88,0.00,,,0.00,Graphweather,2013-08-04 23:45:00,
2013-08-04 19:50:00,80.4,77.0,30.00,NE,45,2.9,2.9,88,0.00,,,0.00,Graphweather,2013-08-04 23:50:00,
2013-08-04 19:55:00,80.2,77.0,30.00,ENE,67,2.0,4.3,89,0.00,,,0.00,Graphweather,2013-08-04 23:55:00,
2013-08-04 20:10:00,80.2,77.0,29.97,NE,45,2.7,2.7,87,0.00,,,0.00,Graphweather,2013-08-05 00:10:00,
2013-08-04 20:15:00,80.2,77.0,29.97,ENE,67,2.9,6.3,87,0.00,,,0.00,Graphweather,2013-08-05 00:15:00,
2013-08-04 20:20:00,80.2,77.0,30.00,North,0,2.0,2.7,89,0.00,,,0.00,Graphweather,2013-08-05 00:20:00,
2013-08-04 20:25:00,80.2,77.0,30.00,North,0,1.3,3.8,88,0.00,,,0.00,Graphweather,2013-08-05 00:25:00,
2013-08-04 20:31:00,80.1,77.0,30.00,East,90,2.2,4.3,88,0.00,,,0.00,Graphweather,2013-08-05 00:31:00,
2013-08-04 20:36:00,80.2,77.0,30.00,SSE,157,3.4,4.3,88,0.00,,,0.00,Graphweather,2013-08-05 00:36:00,
2013-08-04 20:41:00,80.2,77.0,30.00,NE,45,2.7,4.3,89,0.00,,,0.00,Graphweather,2013-08-05 00:41:00,
2013-08-04 20:47:00,80.2,77.0,30.00,NNE,22,4.3,6.5,88,0.00,,,0.00,Graphweather,2013-08-05 00:47:00,
2013-08-04 20:52:00,80.2,77.0,30.00,NE,45,3.1,3.1,89,0.00,,,0.00,Graphweather,2013-08-05 00:52:00,
2013-08-04 20:57:00,80.4,77.0,30.00,North,0,3.1,5.6,90,0.00,,,0.00,Graphweather,2013-08-05 00:57:00,
2013-08-04 21:02:00,80.2,77.0,30.00,ESE,112,3.1,4.7,90,0.00,,,0.00,Graphweather,2013-08-05 01:02:00,
2013-08-04 21:08:00,80.2,77.0,30.03,NNE,22,4.0,4.0,90,0.00,,,0.00,Graphweather,2013-08-05 01:08:00,
2013-08-04 21:13:00,80.1,77.0,30.03,NNE,22,3.4,4.0,90,0.00,,,0.00,Graphweather,2013-08-05 01:13:00,
2013-08-04 21:14:00,80.1,77.0,30.03,ENE,67,1.3,3.4,90,0.00,,,0.00,Graphweather,2013-08-05 01:14:00,
2013-08-04 21:19:00,80.1,77.0,30.00,NE,45,3.4,3.4,90,0.00,,,0.00,Graphweather,2013-08-05 01:19:00,
2013-08-04 21:25:00,80.1,77.0,30.00,ENE,67,4.0,4.0,89,0.00,,,0.00,Graphweather,2013-08-05 01:25:00,
2013-08-04 21:30:00,80.1,77.0,30.00,ENE,67,3.4,4.7,89,0.00,,,0.00,Graphweather,2013-08-05 01:30:00,
2013-08-04 21:35:00,80.1,77.0,30.03,East,90,4.3,4.3,89,0.00,,,0.00,Graphweather,2013-08-05 01:35:00,
2013-08-04 21:40:00,79.9,77.0,30.03,NE,45,3.4,4.3,90,0.00,,,0.00,Graphweather,2013-08-05 01:40:00,
2013-08-04 21:46:00,80.1,77.0,30.03,SE,135,4.5,5.6,91,0.00,,,0.00,Graphweather,2013-08-05 01:46:00,
2013-08-04 21:51:00,80.1,77.0,30.03,East,90,3.1,6.0,90,0.00,,,0.00,Graphweather,2013-08-05 01:51:00,
2013-08-04 21:56:00,80.1,77.0,30.03,NNE,22,3.1,4.0,89,0.00,,,0.00,Graphweather,2013-08-05 01:56:00,
2013-08-04 22:01:00,80.1,77.0,30.03,NE,45,4.3,4.3,89,0.00,,,0.00,Graphweather,2013-08-05 02:01:00,
2013-08-04 22:06:00,80.1,77.0,30.00,East,90,2.9,2.9,90,0.00,,,0.00,Graphweather,2013-08-05 02:06:00,
2013-08-04 22:12:00,80.1,77.0,30.00,East,90,2.9,4.7,89,0.00,,,0.00,Graphweather,2013-08-05 02:12:00,
2013-08-04 22:17:00,80.1,77.0,30.00,NNW,337,2.7,3.6,89,0.00,,,0.00,Graphweather,2013-08-05 02:17:00,
2013-08-04 22:23:00,80.1,77.0,30.03,East,90,4.3,4.3,91,0.00,,,0.00,Graphweather,2013-08-05 02:23:00,
2013-08-04 22:28:00,79.9,77.0,30.03,East,90,3.6,3.6,90,0.00,,,0.00,Graphweather,2013-08-05 02:28:00,
2013-08-04 22:33:00,80.1,77.0,30.03,ESE,112,3.4,3.4,90,0.00,,,0.00,Graphweather,2013-08-05 02:33:00,
2013-08-04 22:38:00,80.1,77.0,30.03,East,90,2.9,2.9,90,0.00,,,0.00,Graphweather,2013-08-05 02:38:00,
2013-08-04 22:44:00,79.9,77.0,30.03,East,90,2.9,4.3,89,0.00,,,0.00,Graphweather,2013-08-05 02:44:00,
2013-08-04 22:49:00,79.9,77.0,30.00,NE,45,3.4,0.0,89,0.00,,,0.00,Graphweather,2013-08-05 02:49:00,
2013-08-04 22:54:00,79.9,77.0,30.00,South,180,4.3,5.4,90,0.00,,,0.00,Graphweather,2013-08-05 02:54:00,
2013-08-04 22:59:00,79.9,77.0,30.00,East,90,2.2,2.5,91,0.00,,,0.00,Graphweather,2013-08-05 02:59:00,
2013-08-04 23:09:00,79.9,77.0,30.03,NNE,22,4.0,4.0,89,0.00,,,0.00,Graphweather,2013-08-05 03:09:00,
2013-08-04 23:15:00,79.9,77.0,30.03,South,180,2.7,7.6,89,0.00,,,0.00,Graphweather,2013-08-05 03:15:00,
2013-08-04 23:20:00,79.9,77.0,30.00,NE,45,4.9,5.6,89,0.00,,,0.00,Graphweather,2013-08-05 03:20:00,
2013-08-04 23:25:00,79.7,77.0,30.00,East,90,2.9,2.9,89,0.00,,,0.00,Graphweather,2013-08-05 03:25:00,
2013-08-04 23:30:00,79.7,77.0,30.00,ESE,112,2.5,3.1,89,0.00,,,0.00,Graphweather,2013-08-05 03:30:00,
2013-08-04 23:36:00,79.7,77.0,30.00,ESE,112,4.3,4.3,88,0.00,,,0.00,Graphweather,2013-08-05 03:36:00,
2013-08-04 23:41:00,79.7,77.0,30.00,East,90,2.2,4.9,88,0.00,,,0.00,Graphweather,2013-08-05 03:41:00,
2013-08-04 23:46:00,79.7,77.0,30.00,East,90,3.1,4.0,88,0.00,,,0.00,Graphweather,2013-08-05 03:46:00,
2013-08-04 23:51:00,79.7,77.0,30.00,East,90,2.2,3.8,88,0.00,,,0.00,Graphweather,2013-08-05 03:51:00,
2013-08-04 23:56:00,79.7,77.0,30.00,SSW,202,2.5,3.4,88,0.00,,,0.00,Graphweather,2013-08-05 03:56:00,